Time;durP1;ratioP1;P1;durP2;ratioP2;P2;SDS_P1;SDS_P2;PMS_P1;PMS_P2;Temp;Humidity;BMP_temperature;BMP_pressure;BME280_temperature;BME280_humidity;BME280_pressure;Samples;Min_cycle;Max_cycle;Signal;HPM_P1;HPM_P2
2022/11/20 00:01:51;;;;;;;5.45;3.47;;;;;;;;;;4951441;29;20055;-57
2022/11/20 00:04:39;;;;;;;3.80;2.75;;;;;;;;;;4950956;29;20051;-57
2022/11/20 00:10:52;;;;;;;4.93;3.25;;;;;;;;;;4911718;29;20056;-57
2022/11/20 00:19:46;;;;;;;5.13;3.72;;;;;;;;;;5031617;28;20033;-57
2022/11/20 00:25:31;;;;;;;5.47;3.28;;;;;;;;;;5007918;28;20214;-57
2022/11/20 00:31:11;;;;;;;;;;;;;;;;;;5028214;28;20084;-56
2022/11/20 00:33:43;;;;;;;3.45;2.58;;;;;;;;;;5011758;28;19913;-55
2022/11/20 00:36:37;;;;;;;;;;;;;;;;;;;;;
2022/11/20 00:39:03;;;;;;;4.10;2.92;;;;;;;;;;5075502;28;20064;-57
2022/11/20 00:42:09;;;;;;;3.08;2.15;;;;;;;;;;5069824;28;20052;-54
2022/11/20 00:48:11;;;;;;;6.28;3.33;;;;;;;;;;5028241;28;20056;-55
2022/11/20 00:51:19;;;;;;;3.63;2.65;;;;;;;;;;5003919;28;20049;-53
2022/11/20 00:54:27;;;;;;;3.45;2.83;;;;;;;;;;5047123;28;20051;-57
2022/11/20 00:57:21;;;;;;;4.93;2.78;;;;;;;;;;5089501;28;20024;-56
2022/11/20 01:02:51;;;;;;;4.25;2.83;;;;;;;;;;5089421;28;20078;-57
2022/11/20 01:05:38;;;;;;;5.00;2.65;;;;;;;;;;5071880;28;20100;-56
2022/11/20 01:08:08;;;;;;;6.38;2.95;;;;;;;;;;5089627;28;20123;-57
2022/11/20 01:13:58;;;;;;;2.95;2.28;;;;;;;;;;5072624;28;20072;-53
2022/11/20 01:25:19;;;;;;;3.22;2.10;;;;;;;;;;5087144;28;20488;-52
2022/11/20 01:31:14;;;;;;;;;;;;;;;;;;;;;
2022/11/20 01:33:56;;;;;;;5.85;3.65;;;;;;;;;;5084099;28;20064;-57
2022/11/20 01:36:32;;;;;;;3.65;2.67;;;;;;;;;;5088050;28;20052;-57
2022/11/20 01:39:17;;;;;;;3.40;2.38;;;;;;;;;;5082829;28;20064;-56
2022/11/20 01:48:10;;;;;;;3.78;2.17;;;;;;;;;;5065465;28;20075;-56
2022/11/20 01:50:45;;;;;;;3.70;2.10;;;;;;;;;;5088189;28;20029;-53
2022/11/20 01:53:29;;;;;;;3.00;1.83;;;;;;;;;;5008730;28;20132;-56
2022/11/20 01:59:09;;;;;;;3.53;1.70;;;;;;;;;;5019454;28;20036;-54
2022/11/20 02:05:11;;;;;;;3.83;2.22;;;;;;;;;;5005726;28;20042;-56
2022/11/20 02:14:16;;;;;;;3.70;2.08;;;;;;;;;;4966317;29;20090;-57
2022/11/20 02:16:58;;;;;;;3.30;2.28;;;;;;;;;;4967424;29;20038;-56
2022/11/20 02:19:39;;;;;;;3.10;2.00;;;;;;;;;;4967708;29;20040;-55
2022/11/20 02:23:13;;;;;;;5.10;2.38;;;;;;;;;;5000820;28;20054;-54
2022/11/20 02:25:52;;;;;;;1.85;1.38;;;;;;;;;;5004393;28;20049;-57
2022/11/20 02:28:42;;;;;;;2.35;1.55;;;;;;;;;;5006958;28;20030;-56
2022/11/20 02:31:32;;;;;;;5.38;1.98;;;;;;;;;;4989911;28;20558;-56
2022/11/20 02:34:27;;;;;;;3.10;2.35;;;;;;;;;;5044879;28;20059;-55
2022/11/20 02:37:17;;;;;;;4.00;2.35;;;;;;;;;;5088632;28;20021;-57
2022/11/20 02:40:21;;;;;;;;;;;;;;;;;;;;;
2022/11/20 02:43:01;;;;;;;6.07;1.92;;;;;;;;;;5084268;28;20079;-57
2022/11/20 02:48:56;;;;;;;3.45;1.77;;;;;;;;;;5087863;28;20037;-56
2022/11/20 02:51:51;;;;;;;3.65;2.25;;;;;;;;;;5053674;28;20036;-56
2022/11/20 02:54:32;;;;;;;4.13;2.45;;;;;;;;;;5057890;28;20048;-57
2022/11/20 02:59:59;;;;;;;3.80;2.22;;;;;;;;;;5094279;28;20031;-55
2022/11/20 03:02:52;;;;;;;;;;;;;;;;;;;;;
2022/11/20 03:08:58;;;;;;;4.60;2.35;;;;;;;;;;5053168;28;20149;-55
2022/11/20 03:14:44;;;;;;;3.42;2.70;;;;;;;;;;5084016;28;20041;-55
2022/11/20 03:23:46;;;;;;;3.33;2.42;;;;;;;;;;5032572;28;20072;-52
2022/11/20 03:26:44;;;;;;;;;;;;;;;;;;;;;
2022/11/20 03:29:32;;;;;;;3.17;2.42;;;;;;;;;;5032465;28;20060;-57
2022/11/20 03:32:11;;;;;;;;;;;;;;;;;;;;;
2022/11/20 03:37:52;;;;;;;4.00;2.80;;;;;;;;;;5073086;28;20032;-55
2022/11/20 03:40:57;;;;;;;4.25;2.90;;;;;;;;;;5094987;28;20031;-55
2022/11/20 03:43:37;;;;;;;2.80;2.03;;;;;;;;;;5072303;28;20067;-55
2022/11/20 03:46:19;;;;;;;3.65;2.47;;;;;;;;;;5075061;28;20025;-54
2022/11/20 03:49:10;;;;;;;4.30;2.63;;;;;;;;;;5075682;28;20037;-55
2022/11/20 03:51:42;;;;;;;;;;;;;;;;;;5075138;28;20440;-57
2022/11/20 03:54:25;;;;;;;3.15;2.47;;;;;;;;;;5074938;28;20380;-56
2022/11/20 03:56:53;;;;;;;4.55;2.85;;;;;;;;;;5054349;28;20035;-57
2022/11/20 03:59:38;;;;;;;4.60;3.22;;;;;;;;;;5074764;28;20028;-56
2022/11/20 04:02:51;;;;;;;;;;;;;;;;;;;;;
2022/11/20 04:08:21;;;;;;;4.20;2.22;;;;;;;;;;5071885;28;20051;-57
2022/11/20 04:11:08;;;;;;;3.00;2.53;;;;;;;;;;5070898;28;20031;-56
2022/11/20 04:13:55;;;;;;;3.75;2.28;;;;;;;;;;5071465;28;20047;-56
2022/11/20 04:17:12;;;;;;;4.32;2.53;;;;;;;;;;5055020;28;20040;-55
2022/11/20 04:23:05;;;;;;;3.83;2.78;;;;;;;;;;4971602;29;20057;-55
2022/11/20 04:25:46;;;;;;;5.22;3.40;;;;;;;;;;4932707;29;20047;-56
2022/11/20 04:31:30;;;;;;;4.57;2.78;;;;;;;;;;4969916;29;20425;-56
2022/11/20 04:40:44;;;;;;;5.72;3.22;;;;;;;;;;4969703;29;20063;-56
2022/11/20 04:44:03;;;;;;;;;;;;;;;;;;;;;
2022/11/20 04:46:25;;;;;;;3.10;2.45;;;;;;;;;;4988457;28;20046;-57
2022/11/20 04:52:07;;;;;;;3.22;2.50;;;;;;;;;;5090475;28;20040;-56
2022/11/20 04:54:42;;;;;;;4.72;2.58;;;;;;;;;;5090452;28;20058;-55
2022/11/20 05:03:30;;;;;;;4.22;2.80;;;;;;;;;;5090151;28;20592;-56
2022/11/20 05:06:14;;;;;;;3.75;2.53;;;;;;;;;;5090398;28;20040;-57
2022/11/20 05:15:07;;;;;;;4.68;2.85;;;;;;;;;;5083172;28;20119;-54
2022/11/20 05:17:52;;;;;;;4.22;2.60;;;;;;;;;;5088910;28;20056;-54
2022/11/20 05:32:52;;;;;;;3.72;2.33;;;;;;;;;;5039215;28;20036;-55
2022/11/20 05:35:27;;;;;;;4.55;3.05;;;;;;;;;;5089311;28;20070;-57
2022/11/20 05:38:31;;;;;;;;;;;;;;;;;;;;;
2022/11/20 05:41:03;;;;;;;8.50;2.78;;;;;;;;;;5083036;28;20063;-55
2022/11/20 05:43:36;;;;;;;6.57;2.50;;;;;;;;;;5088908;28;20541;-56
2022/11/20 05:49:12;;;;;;;;;;;;;;;;;;;;;
2022/11/20 05:51:41;;;;;;;3.67;1.98;;;;;;;;;;5041009;28;20060;-56
2022/11/20 06:00:35;;;;;;;4.30;1.90;;;;;;;;;;5082724;28;20051;-55
2022/11/20 06:03:07;;;;;;;3.20;2.28;;;;;;;;;;5070155;28;20210;-57
2022/11/20 06:05:37;;;;;;;4.35;2.70;;;;;;;;;;5088735;28;20059;-56
2022/11/20 06:08:10;;;;;;;4.97;3.17;;;;;;;;;;5070907;28;20033;-56
2022/11/20 06:14:15;;;;;;;2.20;1.67;;;;;;;;;;5069095;28;20444;-54
2022/11/20 06:19:45;;;;;;;2.47;1.80;;;;;;;;;;4987795;28;20034;-54
2022/11/20 06:22:38;;;;;;;4.78;3.25;;;;;;;;;;4987775;28;20517;-53
2022/11/20 06:27:59;;;;;;;3.47;2.80;;;;;;;;;;5064410;28;20109;-54
2022/11/20 06:30:51;;;;;;;4.40;2.20;;;;;;;;;;5088144;28;20024;-56
2022/11/20 06:33:42;;;;;;;;;;;;;;;;;;;;;
2022/11/20 06:36:26;;;;;;;3.28;1.85;;;;;;;;;;5071997;28;20131;-56
2022/11/20 06:39:24;;;;;;;2.65;1.90;;;;;;;;;;5063953;28;20042;-52
2022/11/20 06:42:01;;;;;;;3.42;2.08;;;;;;;;;;5069305;28;20110;-55
2022/11/20 06:44:53;;;;;;;3.00;1.88;;;;;;;;;;5087588;28;20040;-56
2022/11/20 06:50:55;;;;;;;3.80;2.60;;;;;;;;;;5081967;28;20027;-55
2022/11/20 06:53:27;;;;;;;3.13;1.90;;;;;;;;;;5062331;28;20025;-56
2022/11/20 06:56:04;;;;;;;3.15;2.22;;;;;;;;;;5069324;28;20100;-54
2022/11/20 06:58:59;;;;;;;3.25;2.45;;;;;;;;;;5087578;28;20054;-55
2022/11/20 07:01:47;;;;;;;2.95;1.80;;;;;;;;;;4986278;28;20043;-50
2022/11/20 07:13:31;;;;;;;3.15;2.22;;;;;;;;;;5087281;28;20067;-56
2022/11/20 07:16:37;;;;;;;2.60;2.08;;;;;;;;;;5084030;28;20055;-56
2022/11/20 07:19:32;;;;;;;2.88;1.92;;;;;;;;;;4987254;28;20039;-54
2022/11/20 07:22:01;;;;;;;2.65;1.95;;;;;;;;;;5087742;28;20095;-56
2022/11/20 07:27:47;;;;;;;2.97;1.92;;;;;;;;;;5068332;28;20435;-56
2022/11/20 07:30:40;;;;;;;2.92;1.88;;;;;;;;;;5086985;28;20054;-57
2022/11/20 07:33:27;;;;;;;4.18;2.13;;;;;;;;;;5087374;28;20116;-54
2022/11/20 07:36:09;;;;;;;2.90;2.53;;;;;;;;;;5070150;28;20440;-54
2022/11/20 07:38:50;;;;;;;11.10;3.72;;;;;;;;;;5055393;28;20058;-55
2022/11/20 07:41:19;;;;;;;;;;;;;;;;;;5090932;28;20021;-56
2022/11/20 07:49:54;;;;;;;3.10;2.22;;;;;;;;;;5032376;28;20493;-55
2022/11/20 07:52:30;;;;;;;2.65;1.88;;;;;;;;;;5069849;28;20055;-57
2022/11/20 07:55:46;;;;;;;3.10;1.85;;;;;;;;;;5070586;28;20038;-56
2022/11/20 07:58:22;;;;;;;3.40;2.70;;;;;;;;;;4969259;29;20091;-54
2022/11/20 08:00:53;;;;;;;2.00;1.42;;;;;;;;;;4962708;28;20573;-54
2022/11/20 08:06:24;;;;;;;6.13;2.33;;;;;;;;;;4986849;28;20132;-57
2022/11/20 08:09:20;;;;;;;2.38;1.70;;;;;;;;;;4989137;28;20039;-56
2022/11/20 08:14:47;;;;;;;2.90;2.13;;;;;;;;;;4989140;28;20109;-56
2022/11/20 08:20:34;;;;;;;;;;;;;;;;;;4948174;29;20046;-57
2022/11/20 08:23:24;;;;;;;2.60;2.25;;;;;;;;;;4934875;29;19934;-55
2022/11/20 08:26:04;;;;;;;;;;;;;;;;;;;;;
2022/11/20 08:28:48;;;;;;;1.58;1.10;;;;;;;;;;5018403;28;20057;-53
2022/11/20 08:31:54;;;;;;;2.63;1.40;;;;;;;;;;5068951;28;20497;-53
2022/11/20 08:34:40;;;;;;;3.60;2.00;;;;;;;;;;5066573;28;20152;-55
2022/11/20 08:37:53;;;;;;;;;;;;;;;;;;;;;
2022/11/20 08:43:30;;;;;;;2.25;1.48;;;;;;;;;;5077566;28;20455;-56
2022/11/20 08:49:31;;;;;;;1.95;1.42;;;;;;;;;;5065892;28;20029;-56
2022/11/20 09:01:16;;;;;;;;;;;;;;;;;;;;;
2022/11/20 09:04:16;;;;;;;6.75;1.80;;;;;;;;;;5089026;28;20051;-54
2022/11/20 09:06:52;;;;;;;2.42;1.38;;;;;;;;;;5054078;28;20043;-55
2022/11/20 09:09:50;;;;;;;;;;;;;;;;;;;;;
2022/11/20 09:15:24;;;;;;;2.03;1.00;;;;;;;;;;5088899;28;20063;-56
2022/11/20 09:17:58;;;;;;;5.13;4.10;;;;;;;;;;5088788;28;20024;-56
2022/11/20 09:23:55;;;;;;;1.73;0.95;;;;;;;;;;5079231;28;20032;-58
2022/11/20 09:26:43;;;;;;;2.78;1.15;;;;;;;;;;5088353;28;20717;-58
2022/11/20 09:29:39;;;;;;;1.50;1.02;;;;;;;;;;5088140;28;20067;-55
2022/11/20 09:32:18;;;;;;;1.65;0.95;;;;;;;;;;5036288;28;20045;-55
2022/11/20 09:35:12;;;;;;;;;;;;;;;;;;;;;
2022/11/20 09:37:58;;;;;;;1.02;0.65;;;;;;;;;;5031158;28;20097;-60
2022/11/20 09:40:41;;;;;;;1.10;0.60;;;;;;;;;;5017048;28;20029;-55
2022/11/20 09:43:28;;;;;;;0.50;0.30;;;;;;;;;;5032502;28;20045;-55
2022/11/20 09:46:22;;;;;;;1.55;0.57;;;;;;;;;;5018845;28;20048;-54
2022/11/20 09:49:23;;;;;;;;;;;;;;;;;;;;;
2022/11/20 09:52:19;;;;;;;1.25;0.77;;;;;;;;;;4999849;28;20080;-55
2022/11/20 09:58:32;;;;;;;;;;;;;;;;;;;;;
2022/11/20 10:04:32;;;;;;;1.13;0.50;;;;;;;;;;5068832;28;20035;-57
2022/11/20 10:07:27;;;;;;;1.17;0.45;;;;;;;;;;5074656;28;20032;-56
2022/11/20 10:09:59;;;;;;;0.90;0.40;;;;;;;;;;5074648;28;20485;-56
2022/11/20 10:12:48;;;;;;;1.52;0.98;;;;;;;;;;5056193;28;20028;-55
2022/11/20 10:15:34;;;;;;;0.43;0.20;;;;;;;;;;5064547;28;20117;-57
2022/11/20 10:24:37;;;;;;;0.50;0.30;;;;;;;;;;5068184;28;20040;-55
2022/11/20 10:30:35;;;;;;;;;;;;;;;;;;;;;
2022/11/20 10:36:24;;;;;;;0.93;0.50;;;;;;;;;;5031692;28;20060;-57
2022/11/20 10:39:21;;;;;;;0.98;0.40;;;;;;;;;;5047966;28;20037;-57
2022/11/20 10:41:59;;;;;;;1.15;0.63;;;;;;;;;;5055172;28;20036;-57
2022/11/20 10:47:46;;;;;;;0.70;0.30;;;;;;;;;;4953779;29;20059;-58
2022/11/20 10:56:31;;;;;;;1.73;0.65;;;;;;;;;;4966900;28;20084;-58
2022/11/20 10:59:18;;;;;;;0.90;0.43;;;;;;;;;;5012094;28;20391;-57
2022/11/20 11:02:15;;;;;;;0.50;0.30;;;;;;;;;;5012706;28;20037;-56
2022/11/20 11:05:18;;;;;;;1.00;0.63;;;;;;;;;;5011989;28;20100;-57
2022/11/20 11:08:06;;;;;;;0.82;0.52;;;;;;;;;;5008868;28;20623;-55
2022/11/20 11:11:11;;;;;;;1.40;0.73;;;;;;;;;;5075444;28;20032;-56
2022/11/20 11:13:49;;;;;;;0.40;0.22;;;;;;;;;;5078105;28;20013;-58
2022/11/20 11:16:55;;;;;;;1.00;0.50;;;;;;;;;;5076792;28;20515;-55
2022/11/20 11:19:40;;;;;;;;;;;;;;;;;;;;;
2022/11/20 11:22:21;;;;;;;0.85;0.52;;;;;;;;;;5067449;28;20039;-57
2022/11/20 11:31:24;;;;;;;1.42;0.90;;;;;;;;;;4999650;28;20036;-56
2022/11/20 11:34:13;;;;;;;1.67;0.80;;;;;;;;;;5073702;28;20041;-57
2022/11/20 11:36:51;;;;;;;5.78;1.35;;;;;;;;;;5073893;28;20307;-58
2022/11/20 11:46:13;;;;;;;1.30;0.77;;;;;;;;;;4997536;28;20055;-55
2022/11/20 11:52:04;;;;;;;4.85;0.90;;;;;;;;;;5077348;28;20326;-57
2022/11/20 11:55:12;;;;;;;1.88;1.33;;;;;;;;;;5060550;28;20390;-58
2022/11/20 11:58:15;;;;;;;3.50;1.10;;;;;;;;;;5078197;28;20072;-58
2022/11/20 12:01:18;;;;;;;;;;;;;;;;;;;;;
2022/11/20 12:07:00;;;;;;;3.30;1.25;;;;;;;;;;5077358;28;20036;-58
2022/11/20 12:09:42;;;;;;;;;;;;;;;;;;5066344;28;20039;-57
2022/11/20 12:12:35;;;;;;;1.63;0.77;;;;;;;;;;5076314;28;19905;-56
2022/11/20 12:15:21;;;;;;;2.50;1.27;;;;;;;;;;5053802;28;20036;-57
2022/11/20 12:18:07;;;;;;;1.83;1.02;;;;;;;;;;5076465;28;20082;-57
2022/11/20 12:21:00;;;;;;;2.92;1.13;;;;;;;;;;5004536;28;20034;-57
2022/11/20 12:23:48;;;;;;;2.47;0.88;;;;;;;;;;5013600;28;20036;-56
2022/11/20 12:26:28;;;;;;;1.13;0.77;;;;;;;;;;5009699;28;20044;-57
2022/11/20 12:29:16;;;;;;;1.42;0.82;;;;;;;;;;4997689;28;20137;-56
2022/11/20 12:32:18;;;;;;;;;;;;;;;;;;;;;
2022/11/20 12:35:10;;;;;;;1.63;0.95;;;;;;;;;;5005588;28;20064;-56
2022/11/20 12:38:21;;;;;;;1.10;0.60;;;;;;;;;;5013736;28;20037;-55
2022/11/20 12:40:46;;;;;;;6.35;0.82;;;;;;;;;;5008831;28;20045;-52
2022/11/20 12:46:37;;;;;;;1.13;0.45;;;;;;;;;;5014524;28;20475;-57
2022/11/20 12:49:22;;;;;;;13.68;1.83;;;;;;;;;;5013590;28;20030;-57
2022/11/20 12:52:31;;;;;;;19.38;3.65;;;;;;;;;;5051975;28;20028;-58
2022/11/20 12:58:14;;;;;;;4.32;0.70;;;;;;;;;;5075860;28;20094;-58
2022/11/20 13:01:05;;;;;;;0.35;0.22;;;;;;;;;;5076203;28;20078;-59
2022/11/20 13:04:00;;;;;;;2.03;0.90;;;;;;;;;;5070279;28;20040;-58
2022/11/20 13:07:10;;;;;;;;;;;;;;;;;;;;;
2022/11/20 13:10:09;;;;;;;0.93;0.55;;;;;;;;;;5060153;28;20038;-57
2022/11/20 13:13:13;;;;;;;2.13;0.65;;;;;;;;;;4975129;28;20074;-58
2022/11/20 13:16:22;;;;;;;1.38;0.45;;;;;;;;;;4957125;28;20215;-56
2022/11/20 13:22:18;;;;;;;1.33;0.30;;;;;;;;;;5032687;28;20160;-56
2022/11/20 13:31:13;;;;;;;2.17;0.70;;;;;;;;;;5063606;28;20040;-57
2022/11/20 13:37:22;;;;;;;1.25;0.65;;;;;;;;;;5075328;28;19950;-57
2022/11/20 13:40:00;;;;;;;1.40;0.70;;;;;;;;;;5072896;28;20090;-57
2022/11/20 13:42:45;;;;;;;1.05;0.52;;;;;;;;;;5075608;28;20466;-57
2022/11/20 14:01:06;;;;;;;0.77;0.47;;;;;;;;;;5055636;28;20510;-57
2022/11/20 14:03:45;;;;;;;1.13;0.55;;;;;;;;;;5036940;28;20484;-58
2022/11/20 14:09:55;;;;;;;1.33;0.55;;;;;;;;;;4954533;29;20369;-58
2022/11/20 14:12:50;;;;;;;2.17;0.75;;;;;;;;;;4954863;29;20038;-57
2022/11/20 14:15:49;;;;;;;0.88;0.40;;;;;;;;;;4954927;29;20059;-59
2022/11/20 14:18:47;;;;;;;1.83;0.80;;;;;;;;;;4954808;29;20445;-59
2022/11/20 14:25:34;;;;;;;2.05;0.65;;;;;;;;;;5010364;28;20039;-59
2022/11/20 14:27:50;;;;;;;0.40;0.20;;;;;;;;;;5028126;28;20052;-59
2022/11/20 14:30:34;;;;;;;2.00;0.70;;;;;;;;;;5033746;28;20116;-59
2022/11/20 14:39:25;;;;;;;;;;;;;;;;;;5013139;28;20053;-59
2022/11/20 14:42:05;;;;;;;3.22;0.80;;;;;;;;;;5054069;28;19911;-59
2022/11/20 14:44:54;;;;;;;1.63;0.70;;;;;;;;;;5053039;28;20529;-59
2022/11/20 14:47:52;;;;;;;4.65;0.75;;;;;;;;;;5040488;28;20059;-58
2022/11/20 14:50:45;;;;;;;1.58;0.82;;;;;;;;;;5054245;28;20088;-59
2022/11/20 14:53:38;;;;;;;0.77;0.40;;;;;;;;;;5053796;28;20033;-59
2022/11/20 14:59:17;;;;;;;1.27;1.00;;;;;;;;;;4953029;29;20031;-59
2022/11/20 15:02:27;;;;;;;0.80;0.45;;;;;;;;;;4954333;29;20051;-59
2022/11/20 15:05:08;;;;;;;1.45;0.82;;;;;;;;;;4953083;29;20067;-59
2022/11/20 15:08:14;;;;;;;0.93;0.52;;;;;;;;;;4953823;29;20031;-59
2022/11/20 15:14:18;;;;;;;2.95;0.90;;;;;;;;;;5006130;28;20154;-59
2022/11/20 15:16:54;;;;;;;2.95;0.90;;;;;;;;;;5018560;28;20029;-59
2022/11/20 15:19:53;;;;;;;1.00;0.60;;;;;;;;;;5053740;28;20107;-59
2022/11/20 15:28:42;;;;;;;;;;;;;;;;;;;;;
2022/11/20 15:31:34;;;;;;;1.40;0.70;;;;;;;;;;5034435;28;20119;-59
2022/11/20 15:34:35;;;;;;;1.40;0.68;;;;;;;;;;5048881;28;20079;-59
2022/11/20 15:37:40;;;;;;;1.33;0.70;;;;;;;;;;5053239;28;20032;-59
2022/11/20 15:40:23;;;;;;;3.03;1.83;;;;;;;;;;5008582;28;20090;-59
2022/11/20 15:46:01;;;;;;;1.88;1.08;;;;;;;;;;5073546;28;20604;-59
2022/11/20 15:48:51;;;;;;;4.18;2.47;;;;;;;;;;5073853;28;20098;-60
2022/11/20 15:55:09;;;;;;;;;;;;;;;;;;;;;
2022/11/20 15:57:44;;;;;;;4.25;2.72;;;;;;;;;;4959212;28;20388;-59
2022/11/20 16:00:32;;;;;;;1.90;1.23;;;;;;;;;;4977073;28;20044;-60
2022/11/20 16:03:38;;;;;;;40.88;26.52;;;;;;;;;;5023025;28;20494;-60
2022/11/20 16:06:24;;;;;;;5.55;4.22;;;;;;;;;;5077486;28;20492;-60
2022/11/20 16:09:02;;;;;;;5.32;4.15;;;;;;;;;;5077265;28;20067;-59
2022/11/20 16:17:46;;;;;;;1.77;1.05;;;;;;;;;;5076868;28;20465;-60
2022/11/20 16:20:26;;;;;;;2.35;1.52;;;;;;;;;;5077888;28;20028;-59
2022/11/20 16:23:44;;;;;;;;;;;;;;;;;;;;;
2022/11/20 16:26:20;;;;;;;2.10;0.95;;;;;;;;;;4976012;28;20098;-60
2022/11/20 16:35:14;;;;;;;2.20;1.30;;;;;;;;;;5057157;28;20027;-60
2022/11/20 16:38:08;;;;;;;;;;;;;;;;;;;;;
2022/11/20 16:44:04;;;;;;;2.35;1.45;;;;;;;;;;5076408;28;20555;-60
2022/11/20 16:49:50;;;;;;;2.30;1.52;;;;;;;;;;5076455;28;20151;-60
2022/11/20 16:55:05;;;;;;;1.98;1.35;;;;;;;;;;5040053;28;20028;-60
2022/11/20 16:58:04;;;;;;;2.15;1.60;;;;;;;;;;5075616;28;20082;-59
2022/11/20 17:00:38;;;;;;;3.70;2.15;;;;;;;;;;5050066;28;20487;-59
2022/11/20 17:03:17;;;;;;;;;;;;;;;;;;;;;
2022/11/20 17:06:06;;;;;;;2.90;2.35;;;;;;;;;;5071420;28;20040;-60
2022/11/20 17:12:26;;;;;;;5.05;3.28;;;;;;;;;;5013541;28;20037;-59
2022/11/20 17:15:06;;;;;;;7.47;6.10;;;;;;;;;;4992028;28;20115;-59
2022/11/20 17:17:53;;;;;;;17.45;12.63;;;;;;;;;;5059825;28;20036;-59
2022/11/20 17:23:13;;;;;;;6.15;5.50;;;;;;;;;;5062449;28;20074;-59
2022/11/20 17:26:13;;;;;;;7.50;3.75;;;;;;;;;;5075621;28;20036;-59
2022/11/20 17:29:26;;;;;;;;;;;;;;;;;;;;;
2022/11/20 17:31:59;;;;;;;2.42;1.70;;;;;;;;;;5069652;28;20374;-59
2022/11/20 17:34:39;;;;;;;3.50;2.00;;;;;;;;;;5074761;28;20025;-59
2022/11/20 17:40:25;;;;;;;2.95;2.28;;;;;;;;;;5069515;28;20255;-59
2022/11/20 17:43:10;;;;;;;2.95;2.10;;;;;;;;;;5070379;28;20539;-59
2022/11/20 17:45:55;;;;;;;;;;;;;;;;;;;;;
2022/11/20 17:48:47;;;;;;;;;;;;;;;;;;;;;
2022/11/20 18:04:22;;;;;;;2.63;1.35;;;;;;;;;;5046583;28;20029;-58
2022/11/20 18:07:04;;;;;;;1.52;1.25;;;;;;;;;;5075044;28;20048;-59
2022/11/20 18:09:41;;;;;;;1.60;1.13;;;;;;;;;;5074847;28;20089;-59
2022/11/20 18:12:26;;;;;;;3.35;1.75;;;;;;;;;;5056591;28;20020;-59
2022/11/20 18:15:37;;;;;;;;;;;;;;;;;;;;;
2022/11/20 18:18:48;;;;;;;;;;;;;;;;;;;;;
2022/11/20 18:24:38;;;;;;;1.20;0.70;;;;;;;;;;4987200;28;20125;-59
2022/11/20 18:27:16;;;;;;;1.42;0.90;;;;;;;;;;5054250;28;20470;-59
2022/11/20 18:30:18;;;;;;;2.28;1.35;;;;;;;;;;5057587;28;20016;-59
2022/11/20 18:35:52;;;;;;;3.03;1.77;;;;;;;;;;5048723;28;20020;-59
2022/11/20 18:38:31;;;;;;;2.83;1.03;;;;;;;;;;5057077;28;20413;-59
2022/11/20 18:44:49;;;;;;;1.58;0.77;;;;;;;;;;5074510;28;20024;-59
2022/11/20 18:47:01;;;;;;;2.17;1.20;;;;;;;;;;5063833;28;20055;-58
2022/11/20 18:50:01;;;;;;;3.42;1.63;;;;;;;;;;5035804;28;20108;-61
2022/11/20 18:52:56;;;;;;;2.60;1.67;;;;;;;;;;5035279;28;20471;-59
2022/11/20 18:55:50;;;;;;;1.80;0.85;;;;;;;;;;5041585;28;20496;-59
2022/11/20 18:58:53;;;;;;;;;;;;;;;;;;;;;
2022/11/20 19:01:49;;;;;;;1.95;1.00;;;;;;;;;;5054419;28;20108;-59
2022/11/20 19:04:29;;;;;;;2.15;1.10;;;;;;;;;;5028456;28;20498;-58
2022/11/20 19:10:26;;;;;;;2.25;1.17;;;;;;;;;;5037840;28;20033;-60
2022/11/20 19:13:12;;;;;;;1.27;0.88;;;;;;;;;;4998322;28;20057;-60
2022/11/20 19:15:54;;;;;;;2.83;1.35;;;;;;;;;;5052898;28;20079;-60
2022/11/20 19:18:34;;;;;;;1.95;1.20;;;;;;;;;;5035329;28;20031;-59
2022/11/20 19:21:32;;;;;;;1.80;1.33;;;;;;;;;;5053871;28;20053;-59
2022/11/20 19:30:21;;;;;;;2.38;1.40;;;;;;;;;;5040026;28;20394;-59
2022/11/20 19:33:00;;;;;;;;;;;;;;;;;;;;;
2022/11/20 19:35:48;;;;;;;2.45;1.85;;;;;;;;;;5039947;28;20163;-59
2022/11/20 19:38:26;;;;;;;1.88;1.50;;;;;;;;;;5057442;28;20066;-59
2022/11/20 19:43:52;;;;;;;7.53;1.33;;;;;;;;;;5042860;28;20044;-60
2022/11/20 19:46:25;;;;;;;2.78;1.15;;;;;;;;;;5063345;28;20049;-59
2022/11/20 19:49:14;;;;;;;1.92;1.00;;;;;;;;;;5057909;28;20044;-59
2022/11/20 19:54:54;;;;;;;1.10;0.60;;;;;;;;;;5077069;28;20500;-60
2022/11/20 20:04:17;;;;;;;3.00;1.00;;;;;;;;;;5034620;28;20033;-59
2022/11/20 20:07:04;;;;;;;;;;;;;;;;;;;;;
2022/11/20 20:13:05;;;;;;;1.10;0.70;;;;;;;;;;5034536;28;20398;-59
2022/11/20 20:18:33;;;;;;;0.75;0.20;;;;;;;;;;5031546;28;20048;-60
2022/11/20 20:27:48;;;;;;;1.00;0.60;;;;;;;;;;5034368;28;20040;-60
2022/11/20 20:30:46;;;;;;;0.43;0.25;;;;;;;;;;4995657;28;20043;-58
2022/11/20 20:33:26;;;;;;;0.03;0.03;;;;;;;;;;4995101;28;20098;-59
2022/11/20 20:39:29;;;;;;;0.40;0.30;;;;;;;;;;4982523;28;20046;-60
2022/11/20 20:42:10;;;;;;;0.77;0.32;;;;;;;;;;5036750;28;20048;-60
2022/11/20 20:47:36;;;;;;;0.60;0.20;;;;;;;;;;5067262;28;20103;-60
2022/11/20 20:50:29;;;;;;;0.43;0.20;;;;;;;;;;5056418;28;20033;-60
2022/11/20 20:53:26;;;;;;;;;;;;;;;;;;;;;
2022/11/20 20:56:27;;;;;;;1.08;0.43;;;;;;;;;;5052600;28;20554;-60
2022/11/20 20:59:37;;;;;;;0.63;0.40;;;;;;;;;;5055934;28;20118;-60
2022/11/20 21:02:15;;;;;;;1.30;0.47;;;;;;;;;;4955642;29;20031;-60
2022/11/20 21:05:02;;;;;;;0.65;0.30;;;;;;;;;;4956200;29;20057;-60
2022/11/20 21:11:03;;;;;;;0.90;0.47;;;;;;;;;;5051519;28;20031;-59
2022/11/20 21:13:52;;;;;;;0.30;0.20;;;;;;;;;;4974428;28;20030;-60
2022/11/20 21:17:07;;;;;;;0.10;0.10;;;;;;;;;;5037873;28;20036;-60
2022/11/20 21:21:57;;;;;;;0.40;0.30;;;;;;;;;;5056859;28;20100;-60
2022/11/20 21:22:53;;;;;;;0.00;0.00;;;;;;;;;;4986501;28;20061;-60
2022/11/20 21:25:55;;;;;;;0.63;0.38;;;;;;;;;;4994742;28;20120;-60
2022/11/20 21:34:45;;;;;;;0.32;0.20;;;;;;;;;;4982902;28;20034;-60
2022/11/20 21:37:22;;;;;;;0.10;0.10;;;;;;;;;;4993883;28;20049;-60
2022/11/20 21:39:54;;;;;;;0.50;0.25;;;;;;;;;;4994237;28;20457;-60
2022/11/20 21:42:37;;;;;;;0.68;0.40;;;;;;;;;;4993425;28;20096;-60
2022/11/20 21:48:16;;;;;;;0.20;0.10;;;;;;;;;;5049354;28;20140;-59
2022/11/20 21:50:59;;;;;;;0.57;0.30;;;;;;;;;;5075521;28;20029;-60
2022/11/20 21:53:38;;;;;;;;;;;;;;;;;;;;;
2022/11/20 21:59:37;;;;;;;1.13;0.55;;;;;;;;;;5074843;28;20109;-60
2022/11/20 22:04:59;;;;;;;0.10;0.00;;;;;;;;;;5085198;28;20041;-60
2022/11/20 22:07:54;;;;;;;0.22;0.17;;;;;;;;;;5086545;28;20021;-60
2022/11/20 22:10:49;;;;;;;0.30;0.20;;;;;;;;;;5087494;28;20034;-60
2022/11/20 22:16:06;;;;;;;;;;;;;;;;;;5084984;28;20036;-60
2022/11/20 22:22:15;;;;;;;0.85;0.22;;;;;;;;;;4985497;28;20392;-59
2022/11/20 22:24:47;;;;;;;0.30;0.10;;;;;;;;;;4985659;28;20066;-60
2022/11/20 22:27:34;;;;;;;0.93;0.38;;;;;;;;;;4986252;28;20039;-60
2022/11/20 22:30:26;;;;;;;0.55;0.35;;;;;;;;;;4986030;28;20039;-60
2022/11/20 22:33:21;;;;;;;0.88;0.50;;;;;;;;;;4986697;28;20030;-60
2022/11/20 22:35:54;;;;;;;0.73;0.35;;;;;;;;;;4973151;28;20046;-60
2022/11/20 22:38:43;;;;;;;0.43;0.22;;;;;;;;;;4985479;28;20042;-60
2022/11/20 22:41:50;;;;;;;0.90;0.40;;;;;;;;;;4985546;28;20042;-60
2022/11/20 22:44:36;;;;;;;0.28;0.13;;;;;;;;;;4925776;29;20080;-60
2022/11/20 22:47:27;;;;;;;1.33;0.77;;;;;;;;;;4927938;29;20032;-60
2022/11/20 22:50:31;;;;;;;;;;;;;;;;;;;;;
2022/11/20 22:53:16;;;;;;;;;;;;;;;;;;;;;
2022/11/20 22:58:50;;;;;;;4.38;0.57;;;;;;;;;;4993942;28;20038;-60
2022/11/20 23:01:50;;;;;;;0.75;0.35;;;;;;;;;;4987913;28;20427;-60
2022/11/20 23:16:50;;;;;;;0.70;0.57;;;;;;;;;;5082779;28;20267;-60
2022/11/20 23:19:28;;;;;;;0.80;0.47;;;;;;;;;;5071539;28;20032;-60
2022/11/20 23:22:38;;;;;;;;;;;;;;;;;;;;;
2022/11/20 23:25:27;;;;;;;1.05;0.50;;;;;;;;;;5089722;28;20049;-60
2022/11/20 23:28:12;;;;;;;0.43;0.20;;;;;;;;;;5073217;28;20031;-60
2022/11/20 23:31:19;;;;;;;0.13;0.03;;;;;;;;;;5072173;28;20036;-60
2022/11/20 23:34:16;;;;;;;0.30;0.22;;;;;;;;;;5054703;28;20064;-60
2022/11/20 23:37:00;;;;;;;0.45;0.20;;;;;;;;;;5087099;28;20036;-60
2022/11/20 23:39:35;;;;;;;0.32;0.20;;;;;;;;;;5047266;28;20038;-60
2022/11/20 23:48:08;;;;;;;0.57;0.30;;;;;;;;;;5046699;28;20529;-60
2022/11/20 23:50:47;;;;;;;1.10;0.20;;;;;;;;;;5030066;28;20037;-60
2022/11/20 23:53:32;;;;;;;0.38;0.20;;;;;;;;;;5046520;28;20117;-60
2022/11/20 23:56:13;;;;;;;2.17;0.43;;;;;;;;;;5044083;28;20041;-60
